Estación municipal de Cercs - St.Jordi (Berguedà, )

Consulta los datos en tiempo real de la estación municipal de Cercs - St.Jordi





Hora UTC 02:05
Temperatura 20.4 ºC
Humedad 82.3 %
Presión 1022.2 hPa
Pluja 0.0 mm
Velocidad viento 0.0 km/h
Dirección viento NNE
Radiación solar 0.1 W/m²

Datos diarios 2026-09-01



Hora UTC (invierno +1h; verano +2h)
Temperatura (ºC) Humedad (%) Presión (hPa) Velocidad viento (km/h) Precipitación (mm) Radiación solar (W/m²)
Hora UTC Aire Humedad Presión Vel. Dir. Vel. Max Dir. Intent. máx 5 min. Rad. Sol.
00:05 20.9 79.9 1022.4 1.2 SSW 1.2 S 0.0 0.1
00:10 20.8 79.5 1022.4 0.0 NNE 0.0 SW 0.0 0.1
00:15 20.8 79.8 1022.3 0.0 NNE 0.0 SW 0.0 0.1
00:20 20.8 79.3 1022.4 0.0 NNE 0.0 SW 0.0 0.1
00:25 20.8 79.8 1022.4 0.0 NNE 0.0 SW 0.0 0.1
00:30 20.8 79.9 1022.4 0.4 SSE 3.4 SE 0.0 0.1
00:35 20.7 77.9 1022.4 0.1 S 3.4 S 0.0 0.1
00:40 20.8 76.3 1022.3 0.0 S 3.4 S 0.0 0.1
00:45 20.6 76.5 1022.3 0.0 NNE 0.0 SSW 0.0 0.1
00:50 20.6 76.1 1022.3 0.0 NNE 0.0 SSW 0.0 0.1
00:55 20.6 74.7 1022.2 0.1 SE 3.4 SE 0.0 0.1
01:00 20.7 74.3 1022.3 0.0 SE 3.4 SE 0.0 0.1
01:05 20.7 74.0 1022.3 0.0 NNE 0.0 ENE 0.0 0.1
01:10 20.9 77.3 1022.3 0.0 NNE 0.0 SSW 0.0 0.2
01:15 20.9 79.5 1022.2 0.7 NNE 6.1 NE 0.0 0.1
01:20 20.9 80.8 1022.3 0.0 NNE 0.0 NE 0.0 0.1
01:25 20.8 81.2 1022.3 0.3 NE 3.4 NE 0.0 0.1
01:30 20.7 80.7 1022.2 0.6 NE 6.1 N 0.0 0.1
01:35 20.7 80.4 1022.2 0.2 E 6.1 ESE 0.0 0.1
01:40 20.7 81.5 1022.2 2.8 NE 6.1 ENE 0.0 0.1
01:45 20.7 82.2 1022.2 1.9 NE 6.1 NE 0.0 0.1
01:50 20.6 82.3 1022.2 2.4 ENE 6.1 NE 0.0 0.1
01:55 20.6 82.5 1022.2 0.0 NNE 0.0 ENE 0.0 0.1
02:00 20.6 82.3 1022.2 0.0 NNE 0.0 NE 0.0 0.1
02:05 20.4 82.3 1022.2 0.0 NNE 0.0 NE 0.0 0.1
Máxima 20.9 82.5 1022.4 2.8 NE 6.1 NE 0.0 0.2
Mínima 20 74.0 1022.2
Total 0.0